Terminal Aerodrome Forecast
Issued by NWS Wilmington, OH

Current Version | Previous Version | Graphics & Text | Print | Product List | Glossary On
Versions: 1 2 3 4 5 6 7 8 9 10 11 12 13 14 15 16 17 18 19 20 21 22 23 24 25 26 27
932
FTUS41 KILN 202331
TAFDAY
TAF
KDAY 202331Z 2100/2124 20012KT P6SM SCT060 BKN250
     FM210900 19014G22KT P6SM VCSH OVC025
     FM211000 31012KT 5SM -SHRA BR OVC012
     FM211500 34012KT 2SM -SHRA BR OVC008
     FM211900 36012KT P6SM -SHRA OVC008=

USA.gov is the U.S. government's official web portal to all federal, state and local government web resources and services.